sensor_id;sensor_type;location;lat;lon;timestamp;pressure;altitude;pressure_sealevel;temperature;humidity
9439;BME280;5176;42.622;25.386;2023-08-17T00:02:10;97275.00;;;22.94;83.72
9439;BME280;5176;42.622;25.386;2023-08-17T00:04:38;97276.34;;;22.90;83.75
9439;BME280;5176;42.622;25.386;2023-08-17T00:07:05;97277.19;;;22.82;84.45
9439;BME280;5176;42.622;25.386;2023-08-17T00:09:32;97272.38;;;22.70;84.67
9439;BME280;5176;42.622;25.386;2023-08-17T00:12:01;97266.72;;;22.65;85.91
9439;BME280;5176;42.622;25.386;2023-08-17T00:14:29;97268.94;;;22.61;87.40
9439;BME280;5176;42.622;25.386;2023-08-17T00:16:56;97263.78;;;22.51;89.32
9439;BME280;5176;42.622;25.386;2023-08-17T00:19:24;97261.31;;;22.42;89.95
9439;BME280;5176;42.622;25.386;2023-08-17T00:21:51;97268.47;;;22.33;90.24
9439;BME280;5176;42.622;25.386;2023-08-17T00:24:19;97259.50;;;22.26;90.68
9439;BME280;5176;42.622;25.386;2023-08-17T00:26:46;97252.38;;;22.10;91.55
9439;BME280;5176;42.622;25.386;2023-08-17T00:29:15;97266.34;;;22.04;93.72
9439;BME280;5176;42.622;25.386;2023-08-17T00:31:43;97261.66;;;22.06;93.79
9439;BME280;5176;42.622;25.386;2023-08-17T00:34:10;97266.19;;;22.06;92.96
9439;BME280;5176;42.622;25.386;2023-08-17T00:36:37;97263.69;;;22.04;93.36
9439;BME280;5176;42.622;25.386;2023-08-17T00:39:05;97264.53;;;21.96;93.89
9439;BME280;5176;42.622;25.386;2023-08-17T00:41:32;97262.19;;;22.01;93.38
9439;BME280;5176;42.622;25.386;2023-08-17T00:44:00;97264.69;;;22.03;93.19
9439;BME280;5176;42.622;25.386;2023-08-17T00:46:29;97266.03;;;21.99;93.65
9439;BME280;5176;42.622;25.386;2023-08-17T00:48:57;97269.50;;;21.99;93.88
9439;BME280;5176;42.622;25.386;2023-08-17T00:51:25;97262.69;;;21.97;93.29
9439;BME280;5176;42.622;25.386;2023-08-17T00:53:57;97271.72;;;21.88;93.45
9439;BME280;5176;42.622;25.386;2023-08-17T00:56:25;97260.34;;;21.86;93.58
9439;BME280;5176;42.622;25.386;2023-08-17T00:58:53;97267.72;;;21.84;93.98
9439;BME280;5176;42.622;25.386;2023-08-17T01:01:21;97265.69;;;21.77;93.69
9439;BME280;5176;42.622;25.386;2023-08-17T01:03:50;97264.38;;;21.65;95.10
9439;BME280;5176;42.622;25.386;2023-08-17T01:06:18;97260.56;;;21.68;96.07
9439;BME280;5176;42.622;25.386;2023-08-17T01:08:46;97237.69;;;21.57;96.13
9439;BME280;5176;42.622;25.386;2023-08-17T01:11:20;97250.53;;;21.62;95.92
9439;BME280;5176;42.622;25.386;2023-08-17T01:14:00;97258.03;;;21.58;96.57
9439;BME280;5176;42.622;25.386;2023-08-17T01:16:33;97253.34;;;21.52;97.14
9439;BME280;5176;42.622;25.386;2023-08-17T01:19:07;97254.53;;;21.49;96.92
9439;BME280;5176;42.622;25.386;2023-08-17T01:21:41;97253.34;;;21.44;96.85
9439;BME280;5176;42.622;25.386;2023-08-17T01:24:11;97245.84;;;21.39;96.92
9439;BME280;5176;42.622;25.386;2023-08-17T01:26:38;97244.69;;;21.34;97.10
9439;BME280;5176;42.622;25.386;2023-08-17T01:29:06;97243.34;;;21.38;97.41
9439;BME280;5176;42.622;25.386;2023-08-17T01:31:39;97238.53;;;21.41;96.91
9439;BME280;5176;42.622;25.386;2023-08-17T01:34:10;97246.53;;;21.41;96.77
9439;BME280;5176;42.622;25.386;2023-08-17T01:36:50;97247.84;;;21.45;96.06
9439;BME280;5176;42.622;25.386;2023-08-17T01:39:23;97240.03;;;21.44;95.98
9439;BME280;5176;42.622;25.386;2023-08-17T01:41:51;97237.19;;;21.45;95.83
9439;BME280;5176;42.622;25.386;2023-08-17T01:44:20;97242.88;;;21.51;95.14
9439;BME280;5176;42.622;25.386;2023-08-17T01:46:48;97234.19;;;21.48;95.22
9439;BME280;5176;42.622;25.386;2023-08-17T01:49:15;97239.38;;;21.50;95.17
9439;BME280;5176;42.622;25.386;2023-08-17T01:51:42;97243.69;;;21.51;94.39
9439;BME280;5176;42.622;25.386;2023-08-17T01:54:10;97237.19;;;21.45;94.78
9439;BME280;5176;42.622;25.386;2023-08-17T01:56:38;97234.88;;;21.42;94.00
9439;BME280;5176;42.622;25.386;2023-08-17T01:59:05;97235.03;;;21.41;94.08
9439;BME280;5176;42.622;25.386;2023-08-17T02:01:33;97226.03;;;21.42;94.00
9439;BME280;5176;42.622;25.386;2023-08-17T02:04:00;97229.72;;;21.41;93.14
9439;BME280;5176;42.622;25.386;2023-08-17T02:06:28;97219.19;;;21.31;93.36
9439;BME280;5176;42.622;25.386;2023-08-17T02:08:55;97211.16;;;21.23;93.64
9439;BME280;5176;42.622;25.386;2023-08-17T02:11:22;97225.84;;;21.27;93.44
9439;BME280;5176;42.622;25.386;2023-08-17T02:13:51;97214.00;;;21.21;93.21
9439;BME280;5176;42.622;25.386;2023-08-17T02:16:18;97215.78;;;21.13;93.56
9439;BME280;5176;42.622;25.386;2023-08-17T02:18:45;97214.94;;;21.04;93.55
9439;BME280;5176;42.622;25.386;2023-08-17T02:21:13;97218.09;;;21.00;93.51
9439;BME280;5176;42.622;25.386;2023-08-17T02:23:40;97220.94;;;20.98;93.77
9439;BME280;5176;42.622;25.386;2023-08-17T02:26:07;97221.75;;;20.99;93.49
9439;BME280;5176;42.622;25.386;2023-08-17T02:28:35;97217.09;;;20.92;92.84
9439;BME280;5176;42.622;25.386;2023-08-17T02:31:03;97222.09;;;20.87;93.14
9439;BME280;5176;42.622;25.386;2023-08-17T02:33:32;97222.91;;;20.80;93.25
9439;BME280;5176;42.622;25.386;2023-08-17T02:36:00;97226.88;;;20.76;93.29
9439;BME280;5176;42.622;25.386;2023-08-17T02:38:27;97238.00;;;20.71;93.08
9439;BME280;5176;42.622;25.386;2023-08-17T02:40:54;97229.00;;;20.64;94.19
9439;BME280;5176;42.622;25.386;2023-08-17T02:43:21;97225.31;;;20.57;94.37
9439;BME280;5176;42.622;25.386;2023-08-17T02:45:49;97231.09;;;20.52;94.62
9439;BME280;5176;42.622;25.386;2023-08-17T02:48:18;97229.44;;;20.51;94.98
9439;BME280;5176;42.622;25.386;2023-08-17T02:50:45;97235.59;;;20.52;94.61
9439;BME280;5176;42.622;25.386;2023-08-17T02:53:12;97231.59;;;20.48;94.62
9439;BME280;5176;42.622;25.386;2023-08-17T02:55:40;97235.34;;;20.37;94.63
9439;BME280;5176;42.622;25.386;2023-08-17T02:58:07;97234.97;;;20.32;95.35
9439;BME280;5176;42.622;25.386;2023-08-17T03:00:34;97238.63;;;20.31;94.92
9439;BME280;5176;42.622;25.386;2023-08-17T03:03:02;97237.13;;;20.28;95.27
9439;BME280;5176;42.622;25.386;2023-08-17T03:05:31;97231.91;;;20.19;95.96
9439;BME280;5176;42.622;25.386;2023-08-17T03:07:58;97233.28;;;20.23;96.66
9439;BME280;5176;42.622;25.386;2023-08-17T03:10:25;97231.09;;;20.18;95.86
9439;BME280;5176;42.622;25.386;2023-08-17T03:12:52;97238.13;;;20.27;94.93
9439;BME280;5176;42.622;25.386;2023-08-17T03:15:20;97237.81;;;20.30;95.58
9439;BME280;5176;42.622;25.386;2023-08-17T03:17:47;97234.84;;;20.33;95.47
9439;BME280;5176;42.622;25.386;2023-08-17T03:20:14;97238.13;;;20.27;95.49
9439;BME280;5176;42.622;25.386;2023-08-17T03:22:43;97236.31;;;20.28;95.79
9439;BME280;5176;42.622;25.386;2023-08-17T03:25:10;97234.31;;;20.30;95.05
9439;BME280;5176;42.622;25.386;2023-08-17T03:27:37;97232.13;;;20.25;95.02
9439;BME280;5176;42.622;25.386;2023-08-17T03:30:05;97242.47;;;20.28;94.83
9439;BME280;5176;42.622;25.386;2023-08-17T03:32:33;97217.56;;;20.11;94.61
9439;BME280;5176;42.622;25.386;2023-08-17T03:35:00;97238.75;;;20.21;94.76
9439;BME280;5176;42.622;25.386;2023-08-17T03:37:27;97248.41;;;20.22;94.65
9439;BME280;5176;42.622;25.386;2023-08-17T03:39:56;97245.53;;;20.16;94.30
9439;BME280;5176;42.622;25.386;2023-08-17T03:42:23;97238.19;;;20.09;95.04
9439;BME280;5176;42.622;25.386;2023-08-17T03:44:50;97246.50;;;20.06;95.04
9439;BME280;5176;42.622;25.386;2023-08-17T03:47:18;97237.44;;;19.99;95.48
9439;BME280;5176;42.622;25.386;2023-08-17T03:49:45;97236.16;;;20.03;95.40
9439;BME280;5176;42.622;25.386;2023-08-17T03:52:12;97245.63;;;20.06;95.16
9439;BME280;5176;42.622;25.386;2023-08-17T03:54:40;97231.38;;;20.07;95.19
9439;BME280;5176;42.622;25.386;2023-08-17T03:57:08;97245.72;;;20.14;94.62
9439;BME280;5176;42.622;25.386;2023-08-17T03:59:35;97239.06;;;20.18;94.59
9439;BME280;5176;42.622;25.386;2023-08-17T04:02:03;97250.25;;;20.22;94.56
9439;BME280;5176;42.622;25.386;2023-08-17T04:04:30;97246.41;;;20.24;94.22
9439;BME280;5176;42.622;25.386;2023-08-17T04:06:57;97254.25;;;20.26;93.92
9439;BME280;5176;42.622;25.386;2023-08-17T04:09:25;97245.50;;;20.33;93.63
9439;BME280;5176;42.622;25.386;2023-08-17T04:11:52;97254.31;;;20.34;93.29
9439;BME280;5176;42.622;25.386;2023-08-17T04:14:22;97255.44;;;20.31;93.29
9439;BME280;5176;42.622;25.386;2023-08-17T04:16:49;97247.78;;;20.28;94.22
9439;BME280;5176;42.622;25.386;2023-08-17T04:19:16;97248.44;;;20.30;93.80
9439;BME280;5176;42.622;25.386;2023-08-17T04:21:43;97244.97;;;20.30;93.80
9439;BME280;5176;42.622;25.386;2023-08-17T04:24:11;97254.50;;;20.40;93.94
9439;BME280;5176;42.622;25.386;2023-08-17T04:26:38;97261.50;;;20.41;94.24
9439;BME280;5176;42.622;25.386;2023-08-17T04:29:05;97260.66;;;20.41;93.88
9439;BME280;5176;42.622;25.386;2023-08-17T04:31:34;97264.41;;;20.48;92.69
9439;BME280;5176;42.622;25.386;2023-08-17T04:34:01;97258.72;;;20.51;92.83
9439;BME280;5176;42.622;25.386;2023-08-17T04:36:28;97263.94;;;20.61;93.29
9439;BME280;5176;42.622;25.386;2023-08-17T04:38:55;97260.31;;;20.70;93.50
9439;BME280;5176;42.622;25.386;2023-08-17T04:41:23;97260.50;;;20.77;93.96
9439;BME280;5176;42.622;25.386;2023-08-17T04:43:50;97258.50;;;20.71;92.93
9439;BME280;5176;42.622;25.386;2023-08-17T04:46:17;97257.84;;;20.77;92.38
9439;BME280;5176;42.622;25.386;2023-08-17T04:48:45;97253.34;;;20.77;91.95
9439;BME280;5176;42.622;25.386;2023-08-17T04:51:13;97262.06;;;20.87;91.69
9439;BME280;5176;42.622;25.386;2023-08-17T04:53:40;97254.38;;;20.92;91.60
9439;BME280;5176;42.622;25.386;2023-08-17T04:56:07;97234.41;;;20.88;89.26
9439;BME280;5176;42.622;25.386;2023-08-17T04:58:35;97254.09;;;21.04;88.87
9439;BME280;5176;42.622;25.386;2023-08-17T05:01:02;97260.28;;;21.12;90.37
9439;BME280;5176;42.622;25.386;2023-08-17T05:03:29;97248.81;;;21.20;90.80
9439;BME280;5176;42.622;25.386;2023-08-17T05:05:58;97257.81;;;21.27;90.13
9439;BME280;5176;42.622;25.386;2023-08-17T05:08:26;97257.50;;;21.30;90.34
9439;BME280;5176;42.622;25.386;2023-08-17T05:10:53;97259.19;;;21.39;90.83
9439;BME280;5176;42.622;25.386;2023-08-17T05:13:20;97262.03;;;21.46;91.49
9439;BME280;5176;42.622;25.386;2023-08-17T05:15:47;97241.84;;;21.52;91.53
9439;BME280;5176;42.622;25.386;2023-08-17T05:18:14;97245.88;;;21.64;92.63
9439;BME280;5176;42.622;25.386;2023-08-17T05:20:42;97241.53;;;21.71;93.21
9439;BME280;5176;42.622;25.386;2023-08-17T05:23:10;97246.34;;;21.84;92.25
9439;BME280;5176;42.622;25.386;2023-08-17T05:25:38;97249.19;;;21.90;92.55
9439;BME280;5176;42.622;25.386;2023-08-17T05:28:05;97216.19;;;21.83;92.07
9439;BME280;5176;42.622;25.386;2023-08-17T05:30:33;97248.88;;;22.10;90.92
9439;BME280;5176;42.622;25.386;2023-08-17T05:33:01;97246.81;;;22.20;91.15
9439;BME280;5176;42.622;25.386;2023-08-17T05:35:28;97250.97;;;22.30;91.27
9439;BME280;5176;42.622;25.386;2023-08-17T05:37:55;97248.97;;;22.41;91.04
9439;BME280;5176;42.622;25.386;2023-08-17T05:40:24;97255.56;;;22.53;90.97
9439;BME280;5176;42.622;25.386;2023-08-17T05:42:51;97258.72;;;22.65;90.02
9439;BME280;5176;42.622;25.386;2023-08-17T05:45:19;97250.84;;;22.71;88.97
9439;BME280;5176;42.622;25.386;2023-08-17T05:47:46;97256.81;;;22.81;88.60
9439;BME280;5176;42.622;25.386;2023-08-17T05:50:14;97256.63;;;22.91;89.57
9439;BME280;5176;42.622;25.386;2023-08-17T05:52:41;97258.72;;;23.04;88.78
9439;BME280;5176;42.622;25.386;2023-08-17T05:55:09;97259.34;;;23.14;88.54
9439;BME280;5176;42.622;25.386;2023-08-17T05:57:38;97258.94;;;23.25;88.89
9439;BME280;5176;42.622;25.386;2023-08-17T06:00:06;97262.69;;;23.39;87.58
9439;BME280;5176;42.622;25.386;2023-08-17T06:02:35;97257.75;;;23.51;87.68
9439;BME280;5176;42.622;25.386;2023-08-17T06:05:03;97260.50;;;23.65;86.70
9439;BME280;5176;42.622;25.386;2023-08-17T06:07:31;97255.38;;;23.79;86.26
9439;BME280;5176;42.622;25.386;2023-08-17T06:09:58;97249.44;;;23.91;85.59
9439;BME280;5176;42.622;25.386;2023-08-17T06:12:25;97250.84;;;24.02;83.46
9439;BME280;5176;42.622;25.386;2023-08-17T06:14:54;97254.19;;;24.19;81.75
9439;BME280;5176;42.622;25.386;2023-08-17T06:17:21;97248.03;;;24.33;81.51
9439;BME280;5176;42.622;25.386;2023-08-17T06:19:48;97253.97;;;24.43;80.45
9439;BME280;5176;42.622;25.386;2023-08-17T06:22:16;97258.09;;;24.61;79.55
9439;BME280;5176;42.622;25.386;2023-08-17T06:24:43;97250.22;;;24.74;78.86
9439;BME280;5176;42.622;25.386;2023-08-17T06:27:14;97256.69;;;24.94;77.56
9439;BME280;5176;42.622;25.386;2023-08-17T06:29:41;97251.88;;;25.05;75.96
9439;BME280;5176;42.622;25.386;2023-08-17T06:32:11;97261.53;;;25.20;75.12
9439;BME280;5176;42.622;25.386;2023-08-17T06:34:38;97269.56;;;25.35;75.08
9439;BME280;5176;42.622;25.386;2023-08-17T06:37:05;97267.09;;;25.55;74.04
9439;BME280;5176;42.622;25.386;2023-08-17T06:39:32;97262.84;;;25.67;72.72
9439;BME280;5176;42.622;25.386;2023-08-17T06:42:00;97261.16;;;25.81;70.92
9439;BME280;5176;42.622;25.386;2023-08-17T06:44:27;97256.91;;;25.93;66.59
9439;BME280;5176;42.622;25.386;2023-08-17T06:46:54;97253.09;;;26.02;68.24
9439;BME280;5176;42.622;25.386;2023-08-17T06:49:23;97252.56;;;26.20;67.34
9439;BME280;5176;42.622;25.386;2023-08-17T06:51:51;97248.13;;;26.34;68.00
9439;BME280;5176;42.622;25.386;2023-08-17T06:54:18;97247.66;;;26.52;64.46
9439;BME280;5176;42.622;25.386;2023-08-17T06:56:46;97241.94;;;26.68;61.40
9439;BME280;5176;42.622;25.386;2023-08-17T06:59:13;97246.75;;;26.79;60.67
9439;BME280;5176;42.622;25.386;2023-08-17T07:01:40;97245.97;;;26.92;58.79
9439;BME280;5176;42.622;25.386;2023-08-17T07:04:07;97251.44;;;27.05;56.00
9439;BME280;5176;42.622;25.386;2023-08-17T07:06:36;97233.06;;;27.15;56.39
9439;BME280;5176;42.622;25.386;2023-08-17T07:09:03;97241.19;;;27.29;56.31
9439;BME280;5176;42.622;25.386;2023-08-17T07:11:31;97244.91;;;27.48;54.80
9439;BME280;5176;42.622;25.386;2023-08-17T07:13:58;97240.38;;;27.61;53.85
9439;BME280;5176;42.622;25.386;2023-08-17T07:16:26;97241.25;;;27.75;52.31
9439;BME280;5176;42.622;25.386;2023-08-17T07:18:53;97248.50;;;27.88;51.66
9439;BME280;5176;42.622;25.386;2023-08-17T07:21:20;97243.56;;;27.98;51.09
9439;BME280;5176;42.622;25.386;2023-08-17T07:23:50;97245.63;;;28.16;50.51
9439;BME280;5176;42.622;25.386;2023-08-17T07:26:17;97243.09;;;28.28;49.48
9439;BME280;5176;42.622;25.386;2023-08-17T07:28:46;97232.34;;;28.34;49.60
9439;BME280;5176;42.622;25.386;2023-08-17T07:31:14;97237.50;;;28.49;49.95
9439;BME280;5176;42.622;25.386;2023-08-17T07:33:41;97228.97;;;28.59;47.95
9439;BME280;5176;42.622;25.386;2023-08-17T07:36:08;97237.63;;;28.74;48.06
9439;BME280;5176;42.622;25.386;2023-08-17T07:38:36;97241.31;;;28.86;46.95
9439;BME280;5176;42.622;25.386;2023-08-17T07:41:04;97239.03;;;28.96;47.17
9439;BME280;5176;42.622;25.386;2023-08-17T07:43:32;97233.38;;;29.11;44.78
9439;BME280;5176;42.622;25.386;2023-08-17T07:45:59;97243.06;;;29.19;44.98
9439;BME280;5176;42.622;25.386;2023-08-17T07:48:26;97249.03;;;29.27;45.54
9439;BME280;5176;42.622;25.386;2023-08-17T07:50:59;97240.69;;;29.36;45.07
9439;BME280;5176;42.622;25.386;2023-08-17T07:53:26;97236.94;;;29.43;43.08
9439;BME280;5176;42.622;25.386;2023-08-17T07:55:53;97238.75;;;29.56;43.92
9439;BME280;5176;42.622;25.386;2023-08-17T07:58:23;97232.03;;;29.65;44.38
9439;BME280;5176;42.622;25.386;2023-08-17T08:00:50;97241.28;;;29.76;44.71
9439;BME280;5176;42.622;25.386;2023-08-17T08:03:18;97235.00;;;29.82;41.87
9439;BME280;5176;42.622;25.386;2023-08-17T08:05:45;97244.88;;;29.95;44.20
9439;BME280;5176;42.622;25.386;2023-08-17T08:08:13;97248.34;;;30.02;42.88
9439;BME280;5176;42.622;25.386;2023-08-17T08:10:43;97235.22;;;30.12;43.03
9439;BME280;5176;42.622;25.386;2023-08-17T08:13:10;97233.66;;;30.23;44.17
9439;BME280;5176;42.622;25.386;2023-08-17T08:15:39;97233.44;;;30.24;41.51
9439;BME280;5176;42.622;25.386;2023-08-17T08:18:06;97228.56;;;30.33;43.28
9439;BME280;5176;42.622;25.386;2023-08-17T08:20:33;97224.00;;;30.52;43.29
9439;BME280;5176;42.622;25.386;2023-08-17T08:23:00;97231.38;;;30.63;41.98
9439;BME280;5176;42.622;25.386;2023-08-17T08:25:29;97232.28;;;30.75;41.72
9439;BME280;5176;42.622;25.386;2023-08-17T08:27:56;97228.22;;;30.84;41.42
9439;BME280;5176;42.622;25.386;2023-08-17T08:30:23;97228.50;;;30.95;41.52
9439;BME280;5176;42.622;25.386;2023-08-17T08:32:52;97226.53;;;31.02;41.04
9439;BME280;5176;42.622;25.386;2023-08-17T08:35:21;97221.19;;;31.13;41.40
9439;BME280;5176;42.622;25.386;2023-08-17T08:37:50;97221.94;;;31.20;40.96
9439;BME280;5176;42.622;25.386;2023-08-17T08:40:17;97218.72;;;31.30;40.59
9439;BME280;5176;42.622;25.386;2023-08-17T08:42:45;97218.72;;;31.42;41.41
9439;BME280;5176;42.622;25.386;2023-08-17T08:45:13;97226.06;;;31.53;40.85
9439;BME280;5176;42.622;25.386;2023-08-17T08:47:40;97214.44;;;31.64;40.45
9439;BME280;5176;42.622;25.386;2023-08-17T08:50:13;97211.97;;;31.74;39.54
9439;BME280;5176;42.622;25.386;2023-08-17T08:52:50;97209.78;;;31.83;37.99
9439;BME280;5176;42.622;25.386;2023-08-17T08:55:23;97204.50;;;31.88;37.47
9439;BME280;5176;42.622;25.386;2023-08-17T08:57:52;97206.97;;;31.90;39.30
9439;BME280;5176;42.622;25.386;2023-08-17T09:00:20;97207.47;;;31.98;39.31
9439;BME280;5176;42.622;25.386;2023-08-17T09:02:49;97205.47;;;32.06;39.13
9439;BME280;5176;42.622;25.386;2023-08-17T09:05:17;97210.28;;;32.15;37.97
9439;BME280;5176;42.622;25.386;2023-08-17T09:07:48;97212.06;;;32.21;39.00
9439;BME280;5176;42.622;25.386;2023-08-17T09:10:15;97206.88;;;32.32;38.75
9439;BME280;5176;42.622;25.386;2023-08-17T09:12:45;97211.13;;;32.39;37.90
9439;BME280;5176;42.622;25.386;2023-08-17T09:15:12;97196.63;;;32.45;37.99
9439;BME280;5176;42.622;25.386;2023-08-17T09:17:40;97198.97;;;32.53;38.07
9439;BME280;5176;42.622;25.386;2023-08-17T09:20:09;97203.44;;;32.60;37.96
9439;BME280;5176;42.622;25.386;2023-08-17T09:22:42;97196.47;;;32.64;38.35
9439;BME280;5176;42.622;25.386;2023-08-17T09:25:10;97204.25;;;32.72;37.13
9439;BME280;5176;42.622;25.386;2023-08-17T09:27:38;97206.72;;;32.73;37.85
9439;BME280;5176;42.622;25.386;2023-08-17T09:30:09;97209.28;;;32.80;38.05
9439;BME280;5176;42.622;25.386;2023-08-17T09:32:37;97197.94;;;32.83;37.88
9439;BME280;5176;42.622;25.386;2023-08-17T09:35:05;97193.47;;;32.89;36.58
9439;BME280;5176;42.622;25.386;2023-08-17T09:37:33;97192.66;;;32.88;36.51
9439;BME280;5176;42.622;25.386;2023-08-17T09:40:03;97206.44;;;32.98;38.05
9439;BME280;5176;42.622;25.386;2023-08-17T09:42:34;97197.41;;;33.10;35.50
9439;BME280;5176;42.622;25.386;2023-08-17T09:45:02;97201.81;;;33.11;36.51
9439;BME280;5176;42.622;25.386;2023-08-17T09:47:29;97196.22;;;33.17;37.25
9439;BME280;5176;42.622;25.386;2023-08-17T09:49:57;97196.94;;;33.13;36.06
9439;BME280;5176;42.622;25.386;2023-08-17T09:52:24;97197.75;;;33.13;36.54
9439;BME280;5176;42.622;25.386;2023-08-17T09:54:52;97204.69;;;33.21;37.25
9439;BME280;5176;42.622;25.386;2023-08-17T09:57:22;97202.41;;;33.29;37.12
9439;BME280;5176;42.622;25.386;2023-08-17T09:59:50;97209.38;;;33.37;36.38
9439;BME280;5176;42.622;25.386;2023-08-17T10:02:18;97202.91;;;33.26;36.70
9439;BME280;5176;42.622;25.386;2023-08-17T10:04:49;97202.22;;;33.19;36.81
9439;BME280;5176;42.622;25.386;2023-08-17T10:07:19;97204.84;;;33.14;37.12
9439;BME280;5176;42.622;25.386;2023-08-17T10:10:02;97206.16;;;33.12;36.75
9439;BME280;5176;42.622;25.386;2023-08-17T10:12:35;97206.78;;;33.02;36.39
9439;BME280;5176;42.622;25.386;2023-08-17T10:15:07;97196.72;;;33.02;36.80
9439;BME280;5176;42.622;25.386;2023-08-17T10:17:39;97192.38;;;33.01;36.22
9439;BME280;5176;42.622;25.386;2023-08-17T10:20:10;97199.00;;;32.94;36.59
9439;BME280;5176;42.622;25.386;2023-08-17T10:22:42;97191.69;;;32.83;38.79
9439;BME280;5176;42.622;25.386;2023-08-17T10:25:12;97190.53;;;32.78;38.35
9439;BME280;5176;42.622;25.386;2023-08-17T10:27:41;97190.66;;;32.84;37.77
9439;BME280;5176;42.622;25.386;2023-08-17T10:30:11;97185.44;;;32.94;37.17
9439;BME280;5176;42.622;25.386;2023-08-17T10:32:39;97182.50;;;32.84;37.88
9439;BME280;5176;42.622;25.386;2023-08-17T10:35:11;97179.75;;;32.95;37.62
9439;BME280;5176;42.622;25.386;2023-08-17T10:37:38;97172.75;;;33.11;36.92
9439;BME280;5176;42.622;25.386;2023-08-17T10:40:07;97167.09;;;33.29;37.15
9439;BME280;5176;42.622;25.386;2023-08-17T10:42:35;97168.13;;;33.40;36.75
9439;BME280;5176;42.622;25.386;2023-08-17T10:45:25;97156.94;;;33.53;36.10
9439;BME280;5176;42.622;25.386;2023-08-17T10:48:00;97163.22;;;33.71;36.32
9439;BME280;5176;42.622;25.386;2023-08-17T10:50:59;97163.94;;;33.83;36.00
9439;BME280;5176;42.622;25.386;2023-08-17T10:53:34;97157.72;;;33.99;35.92
9439;BME280;5176;42.622;25.386;2023-08-17T10:56:07;97149.94;;;34.08;35.18
9439;BME280;5176;42.622;25.386;2023-08-17T10:58:35;97150.28;;;33.95;35.66
9439;BME280;5176;42.622;25.386;2023-08-17T11:01:04;97150.81;;;33.92;36.03
9439;BME280;5176;42.622;25.386;2023-08-17T11:03:32;97148.28;;;33.90;36.13
9439;BME280;5176;42.622;25.386;2023-08-17T11:06:15;97152.94;;;34.06;36.14
9439;BME280;5176;42.622;25.386;2023-08-17T11:09:05;97147.91;;;33.98;35.58
9439;BME280;5176;42.622;25.386;2023-08-17T11:11:33;97138.66;;;33.82;36.19
9439;BME280;5176;42.622;25.386;2023-08-17T11:14:00;97137.69;;;33.72;35.79
9439;BME280;5176;42.622;25.386;2023-08-17T11:16:29;97143.78;;;33.62;35.32
9439;BME280;5176;42.622;25.386;2023-08-17T11:18:56;97135.22;;;33.53;37.06
9439;BME280;5176;42.622;25.386;2023-08-17T11:21:25;97133.63;;;33.41;36.87
9439;BME280;5176;42.622;25.386;2023-08-17T11:23:56;97130.53;;;33.20;36.60
9439;BME280;5176;42.622;25.386;2023-08-17T11:26:24;97130.69;;;33.14;37.20
9439;BME280;5176;42.622;25.386;2023-08-17T11:28:51;97129.31;;;33.11;37.04
9439;BME280;5176;42.622;25.386;2023-08-17T11:31:19;97129.06;;;33.13;37.84
9439;BME280;5176;42.622;25.386;2023-08-17T11:33:47;97126.59;;;33.28;36.63
9439;BME280;5176;42.622;25.386;2023-08-17T11:36:16;97131.59;;;33.48;36.91
9439;BME280;5176;42.622;25.386;2023-08-17T11:38:43;97138.94;;;33.64;36.83
9439;BME280;5176;42.622;25.386;2023-08-17T11:41:11;97132.09;;;33.78;35.22
9439;BME280;5176;42.622;25.386;2023-08-17T11:43:40;97132.09;;;33.78;33.82
9439;BME280;5176;42.622;25.386;2023-08-17T11:46:08;97129.94;;;33.64;33.57
9439;BME280;5176;42.622;25.386;2023-08-17T11:48:36;97134.38;;;33.53;33.70
9439;BME280;5176;42.622;25.386;2023-08-17T11:51:05;97134.13;;;33.38;33.48
9439;BME280;5176;42.622;25.386;2023-08-17T11:53:36;97130.63;;;33.25;34.07
9439;BME280;5176;42.622;25.386;2023-08-17T11:56:04;97137.09;;;33.07;33.98
9439;BME280;5176;42.622;25.386;2023-08-17T11:58:42;97130.44;;;32.98;34.13
9439;BME280;5176;42.622;25.386;2023-08-17T12:01:10;97122.19;;;32.93;36.09
9439;BME280;5176;42.622;25.386;2023-08-17T12:03:38;97134.63;;;33.06;36.62
9439;BME280;5176;42.622;25.386;2023-08-17T12:06:08;97139.84;;;33.24;35.99
9439;BME280;5176;42.622;25.386;2023-08-17T12:08:36;97130.66;;;33.42;35.67
9439;BME280;5176;42.622;25.386;2023-08-17T12:11:03;97125.69;;;33.51;35.08
9439;BME280;5176;42.622;25.386;2023-08-17T12:13:32;97130.44;;;33.60;34.82
9439;BME280;5176;42.622;25.386;2023-08-17T12:16:00;97126.56;;;33.73;34.30
9439;BME280;5176;42.622;25.386;2023-08-17T12:18:32;97126.47;;;33.85;34.64
9439;BME280;5176;42.622;25.386;2023-08-17T12:20:59;97121.59;;;33.87;33.70
9439;BME280;5176;42.622;25.386;2023-08-17T12:23:28;97110.59;;;33.94;33.64
9439;BME280;5176;42.622;25.386;2023-08-17T12:25:55;97120.13;;;33.96;32.81
9439;BME280;5176;42.622;25.386;2023-08-17T12:28:23;97116.03;;;33.60;35.90
9439;BME280;5176;42.622;25.386;2023-08-17T12:30:58;97121.63;;;33.53;36.69
9439;BME280;5176;42.622;25.386;2023-08-17T12:33:26;97112.56;;;33.48;37.40
9439;BME280;5176;42.622;25.386;2023-08-17T12:35:54;97117.19;;;33.47;36.63
9439;BME280;5176;42.622;25.386;2023-08-17T12:38:23;97109.72;;;33.26;37.14
9439;BME280;5176;42.622;25.386;2023-08-17T12:40:52;97112.72;;;33.41;38.34
9439;BME280;5176;42.622;25.386;2023-08-17T12:43:19;97099.97;;;33.58;37.52
9439;BME280;5176;42.622;25.386;2023-08-17T12:45:47;97097.56;;;33.62;36.73
9439;BME280;5176;42.622;25.386;2023-08-17T12:48:14;97111.97;;;33.63;35.76
9439;BME280;5176;42.622;25.386;2023-08-17T12:50:42;97108.22;;;33.47;36.25
9439;BME280;5176;42.622;25.386;2023-08-17T12:53:09;97118.78;;;33.31;36.09
9439;BME280;5176;42.622;25.386;2023-08-17T12:55:36;97110.56;;;33.26;36.47
9439;BME280;5176;42.622;25.386;2023-08-17T12:58:07;97105.69;;;33.28;36.38
9439;BME280;5176;42.622;25.386;2023-08-17T13:00:36;97094.16;;;33.21;37.42
9439;BME280;5176;42.622;25.386;2023-08-17T13:03:04;97110.97;;;33.35;38.22
9439;BME280;5176;42.622;25.386;2023-08-17T13:05:32;97103.38;;;33.20;38.78
9439;BME280;5176;42.622;25.386;2023-08-17T13:07:59;97103.63;;;33.19;38.94
9439;BME280;5176;42.622;25.386;2023-08-17T13:10:27;97103.19;;;33.10;39.44
9439;BME280;5176;42.622;25.386;2023-08-17T13:12:55;97118.75;;;32.98;38.47
9439;BME280;5176;42.622;25.386;2023-08-17T13:15:26;97124.47;;;32.73;39.11
9439;BME280;5176;42.622;25.386;2023-08-17T13:17:54;97110.81;;;32.56;39.11